createdAt,value
2023-03-02T00:01:34.346Z,17.88
2023-03-02T00:04:02.953Z,17.23
2023-03-02T00:06:31.774Z,18.10
2023-03-02T00:09:00.740Z,17.88
2023-03-02T00:11:30.576Z,17.58
2023-03-02T00:13:57.624Z,21.30
2023-03-02T00:16:24.670Z,17.50
2023-03-02T00:18:51.467Z,18.30
2023-03-02T00:21:18.217Z,16.00
2023-03-02T00:23:45.043Z,18.05
2023-03-02T00:26:11.750Z,19.17
2023-03-02T00:28:38.357Z,15.55
2023-03-02T00:31:06.514Z,15.75
2023-03-02T00:33:34.727Z,17.88
2023-03-02T00:36:01.885Z,18.73
2023-03-02T00:38:29.276Z,17.13
2023-03-02T00:40:56.460Z,16.60
2023-03-02T00:43:27.451Z,18.02
2023-03-02T00:45:57.255Z,19.10
2023-03-02T00:48:23.894Z,16.33
2023-03-02T00:50:50.791Z,17.20
2023-03-02T00:53:18.165Z,16.77
2023-03-02T00:55:55.868Z,18.33
2023-03-02T00:58:22.616Z,17.30
2023-03-02T01:00:49.573Z,18.23
2023-03-02T01:03:16.288Z,18.58
2023-03-02T01:05:43.136Z,22.08
2023-03-02T01:08:09.959Z,21.75
2023-03-02T01:10:37.573Z,22.38
2023-03-02T01:13:05.557Z,21.75
2023-03-02T01:15:33.853Z,20.20
2023-03-02T01:18:01.036Z,21.15
2023-03-02T01:20:28.279Z,20.05
2023-03-02T01:22:55.537Z,20.08
2023-03-02T01:25:22.204Z,18.20
2023-03-02T01:27:48.926Z,18.42
2023-03-02T01:30:16.551Z,17.73
2023-03-02T01:32:43.202Z,16.45
2023-03-02T01:35:10.310Z,21.38
2023-03-02T01:37:37.065Z,18.50
2023-03-02T01:40:06.501Z,18.23
2023-03-02T01:42:45.745Z,17.58
2023-03-02T01:47:57.646Z,19.90
2023-03-02T01:50:27.329Z,17.77
2023-03-02T01:52:55.435Z,16.88
2023-03-02T01:55:25.405Z,18.45
2023-03-02T01:57:54.629Z,16.50
2023-03-02T02:00:25.019Z,17.70
2023-03-02T02:02:53.224Z,15.65
2023-03-02T02:05:24.213Z,15.55
2023-03-02T02:07:51.206Z,14.65
2023-03-02T02:10:18.232Z,16.27
2023-03-02T02:12:44.830Z,17.23
2023-03-02T02:15:11.534Z,16.40
2023-03-02T02:17:38.244Z,16.15
2023-03-02T02:20:19.556Z,17.00
2023-03-02T02:22:59.201Z,18.80
2023-03-02T02:25:31.786Z,16.67
2023-03-02T02:27:58.517Z,17.92
2023-03-02T02:30:25.867Z,19.20
2023-03-02T02:32:55.475Z,20.00
2023-03-02T02:35:27.342Z,19.77
2023-03-02T02:38:02.979Z,20.70
2023-03-02T02:40:48.161Z,21.17
2023-03-02T02:43:17.875Z,23.00
2023-03-02T02:45:46.573Z,20.10
2023-03-02T02:48:19.490Z,20.08
2023-03-02T02:50:46.888Z,18.73
2023-03-02T02:53:19.431Z,19.67
2023-03-02T02:55:49.476Z,20.15
2023-03-02T02:58:25.531Z,19.15
2023-03-02T03:00:53.965Z,19.52
2023-03-02T03:03:39.358Z,18.63
2023-03-02T03:06:09.437Z,17.65
2023-03-02T03:08:45.644Z,19.83
2023-03-02T03:11:23.394Z,16.05
2023-03-02T03:14:02.065Z,17.63
2023-03-02T03:16:31.410Z,16.90
2023-03-02T03:19:20.139Z,18.10
2023-03-02T03:21:50.650Z,20.03
2023-03-02T03:24:17.823Z,16.60
2023-03-02T03:26:45.219Z,14.38
2023-03-02T03:29:13.464Z,16.13
2023-03-02T03:31:40.594Z,15.10
2023-03-02T03:34:08.002Z,13.60
2023-03-02T03:36:35.814Z,14.45
2023-03-02T03:39:05.627Z,16.40
2023-03-02T03:41:33.196Z,13.55
2023-03-02T03:44:00.073Z,15.15
2023-03-02T03:46:27.386Z,16.05
2023-03-02T03:48:54.123Z,12.93
2023-03-02T03:51:20.812Z,15.60
2023-03-02T03:53:59.642Z,16.05
2023-03-02T03:56:28.316Z,15.88
2023-03-02T03:59:06.196Z,16.30
2023-03-02T04:01:41.928Z,16.85
2023-03-02T04:04:15.912Z,17.88
2023-03-02T04:06:43.451Z,16.90
2023-03-02T04:09:12.351Z,17.13
2023-03-02T04:11:40.958Z,15.32
2023-03-02T04:14:08.981Z,15.82
2023-03-02T04:16:36.894Z,17.05
2023-03-02T04:19:09.556Z,16.70
2023-03-02T04:21:41.545Z,17.73
2023-03-02T04:24:09.960Z,15.15
2023-03-02T04:26:38.282Z,15.37
2023-03-02T04:29:05.529Z,16.42
2023-03-02T04:31:32.916Z,17.58
2023-03-02T04:34:00.410Z,15.75
2023-03-02T04:36:27.524Z,17.83
2023-03-02T04:38:54.514Z,15.90
2023-03-02T04:41:21.912Z,17.27
2023-03-02T04:43:48.909Z,15.98
2023-03-02T04:46:22.206Z,18.08
2023-03-02T04:48:48.903Z,17.33
2023-03-02T04:51:35.552Z,15.98
2023-03-02T04:54:05.547Z,14.77
2023-03-02T04:56:32.838Z,15.93
2023-03-02T04:58:59.655Z,15.07
2023-03-02T05:01:26.858Z,17.10
2023-03-02T05:03:53.893Z,18.15
2023-03-02T05:06:21.915Z,16.85
2023-03-02T05:08:48.685Z,16.25
2023-03-02T05:11:22.040Z,21.02
2023-03-02T05:13:54.575Z,16.05
2023-03-02T05:16:21.826Z,19.25
2023-03-02T05:18:48.532Z,17.75
2023-03-02T05:21:15.952Z,18.02
2023-03-02T05:23:43.022Z,17.08
2023-03-02T05:26:10.175Z,19.85
2023-03-02T05:28:36.853Z,18.40
2023-03-02T05:31:03.814Z,21.98
2023-03-02T05:33:31.028Z,17.48
2023-03-02T05:35:57.974Z,15.63
2023-03-02T05:38:25.136Z,19.42
2023-03-02T05:40:51.731Z,19.17
2023-03-02T05:43:20.978Z,19.83
2023-03-02T05:45:47.652Z,17.90
2023-03-02T05:48:14.542Z,19.92
2023-03-02T05:50:41.837Z,20.38
2023-03-02T05:53:08.944Z,20.88
2023-03-02T05:55:38.288Z,17.27
2023-03-02T06:00:36.077Z,19.52
2023-03-02T06:03:02.895Z,19.98
2023-03-02T06:05:29.559Z,16.23
2023-03-02T06:07:56.649Z,23.50
2023-03-02T06:10:23.618Z,19.00
2023-03-02T06:12:50.582Z,20.10
2023-03-02T06:15:17.284Z,21.70
2023-03-02T06:17:44.269Z,18.67
2023-03-02T06:20:11.900Z,19.20
2023-03-02T06:22:41.366Z,19.20
2023-03-02T06:25:14.106Z,22.85
2023-03-02T06:27:41.846Z,20.20
2023-03-02T06:30:10.809Z,23.08
2023-03-02T06:32:37.530Z,23.00
2023-03-02T06:35:06.150Z,21.50
2023-03-02T06:37:33.021Z,18.87
2023-03-02T06:39:59.891Z,22.67
2023-03-02T06:42:27.966Z,21.45
2023-03-02T06:44:55.175Z,19.58
2023-03-02T06:47:23.295Z,23.02
2023-03-02T06:49:49.963Z,20.77
2023-03-02T06:52:16.911Z,21.83
2023-03-02T06:54:43.670Z,22.77
2023-03-02T06:57:10.530Z,23.15
2023-03-02T06:59:37.116Z,23.40
2023-03-02T07:02:03.986Z,24.13
2023-03-02T07:04:30.576Z,22.52
2023-03-02T07:06:57.238Z,19.25
2023-03-02T07:09:24.244Z,21.80
2023-03-02T07:11:50.953Z,24.55
2023-03-02T07:14:17.589Z,22.20
2023-03-02T07:16:44.327Z,21.55
2023-03-02T07:19:14.133Z,20.50
2023-03-02T07:21:41.428Z,22.52
2023-03-02T07:24:08.264Z,21.77
2023-03-02T07:26:35.037Z,25.08
2023-03-02T07:29:01.895Z,23.52
2023-03-02T07:31:29.156Z,19.65
2023-03-02T07:33:55.810Z,20.00
2023-03-02T07:36:22.367Z,20.55
2023-03-02T07:38:49.033Z,20.92
2023-03-02T07:41:17.005Z,22.67
2023-03-02T07:43:43.910Z,19.65
2023-03-02T07:46:10.821Z,20.80
2023-03-02T07:48:37.545Z,20.30
2023-03-02T07:51:05.903Z,23.65
2023-03-02T07:53:33.041Z,23.13
2023-03-02T07:56:01.427Z,21.50
2023-03-02T07:58:28.322Z,23.00
2023-03-02T08:00:54.924Z,20.20
2023-03-02T08:03:21.640Z,21.05
2023-03-02T08:05:48.249Z,21.75
2023-03-02T08:08:14.917Z,22.98
2023-03-02T08:10:41.535Z,20.05
2023-03-02T08:13:08.174Z,23.02
2023-03-02T08:15:34.816Z,26.27
2023-03-02T08:18:01.458Z,23.45
2023-03-02T08:20:28.272Z,21.50
2023-03-02T08:22:55.108Z,24.70
2023-03-02T08:25:21.834Z,21.77
2023-03-02T08:27:48.691Z,23.27
2023-03-02T08:30:15.610Z,23.30
2023-03-02T08:32:42.436Z,21.52
2023-03-02T08:35:09.588Z,23.33
2023-03-02T08:37:36.334Z,22.15
2023-03-02T08:40:03.857Z,23.98
2023-03-02T08:42:30.476Z,21.65
2023-03-02T08:44:57.107Z,21.35
2023-03-02T08:47:23.717Z,21.45
2023-03-02T08:49:51.280Z,21.77
2023-03-02T08:52:17.921Z,22.20
2023-03-02T08:54:44.618Z,24.00
2023-03-02T08:57:11.837Z,24.40
2023-03-02T08:59:38.515Z,23.65
2023-03-02T09:02:05.383Z,29.58
2023-03-02T09:04:32.276Z,26.73
2023-03-02T09:06:58.940Z,23.75
2023-03-02T09:09:25.591Z,26.67
2023-03-02T09:11:52.291Z,23.77
2023-03-02T09:14:18.908Z,22.83
2023-03-02T09:16:46.253Z,22.15
2023-03-02T09:19:13.894Z,31.75
2023-03-02T09:21:40.513Z,25.27
2023-03-02T09:24:07.301Z,27.98
2023-03-02T09:26:34.213Z,25.65
2023-03-02T09:29:00.912Z,26.52
2023-03-02T09:31:30.126Z,22.40
2023-03-02T09:36:25.629Z,23.13
2023-03-02T09:38:52.883Z,23.17
2023-03-02T09:41:19.614Z,25.30
2023-03-02T09:44:02.014Z,24.83
2023-03-02T09:46:49.745Z,27.75
2023-03-02T09:49:38.199Z,23.85
2023-03-02T09:52:28.309Z,25.80
2023-03-02T09:54:56.280Z,25.85
2023-03-02T09:57:27.161Z,24.63
2023-03-02T10:00:18.321Z,22.17
2023-03-02T10:02:58.777Z,23.92
2023-03-02T10:05:41.920Z,24.80
2023-03-02T10:10:39.867Z,24.58
2023-03-02T10:13:28.256Z,23.80
2023-03-02T10:15:58.006Z,20.83
2023-03-02T10:18:35.957Z,21.98
2023-03-02T10:21:24.267Z,24.52
2023-03-02T10:23:57.385Z,29.52
2023-03-02T10:26:46.787Z,21.27
2023-03-02T10:32:13.491Z,20.05
2023-03-02T10:34:40.113Z,18.13
2023-03-02T10:37:15.432Z,18.85
2023-03-02T10:39:42.168Z,21.05
2023-03-02T10:42:17.076Z,19.05
2023-03-02T10:44:51.090Z,18.38
2023-03-02T10:47:35.564Z,17.25
2023-03-02T10:50:02.194Z,20.90
2023-03-02T10:52:29.465Z,18.88
2023-03-02T10:55:14.331Z,16.35
2023-03-02T10:57:43.954Z,17.63
2023-03-02T11:00:25.225Z,18.73
2023-03-02T11:03:20.316Z,18.67
2023-03-02T11:05:47.814Z,18.38
2023-03-02T11:08:23.457Z,15.95
2023-03-02T11:10:56.900Z,13.15
2023-03-02T11:13:31.180Z,15.73
2023-03-02T11:16:26.234Z,14.98
2023-03-02T11:18:59.144Z,17.20
2023-03-02T11:21:41.128Z,14.52
2023-03-02T11:24:15.311Z,14.25
2023-03-02T11:26:53.738Z,16.60
2023-03-02T11:29:35.758Z,17.20
2023-03-02T11:32:08.342Z,17.45
2023-03-02T11:34:42.465Z,16.05
2023-03-02T11:37:23.125Z,15.45
2023-03-02T11:39:56.229Z,17.77
2023-03-02T11:42:44.251Z,17.08
2023-03-02T11:45:13.794Z,18.38
2023-03-02T11:47:57.573Z,17.00
2023-03-02T11:50:31.590Z,17.17
2023-03-02T11:55:35.765Z,15.70
2023-03-02T11:58:04.789Z,16.48
2023-03-02T12:00:39.785Z,13.77
2023-03-02T12:03:15.349Z,15.88
2023-03-02T12:05:46.961Z,14.90
2023-03-02T12:08:19.346Z,15.85
2023-03-02T12:11:26.188Z,13.45
2023-03-02T12:13:52.746Z,14.32
2023-03-02T12:16:41.058Z,14.55
2023-03-02T12:19:25.999Z,15.47
2023-03-02T12:22:02.248Z,17.10
2023-03-02T12:24:32.568Z,12.88
2023-03-02T12:27:16.601Z,12.68
2023-03-02T12:29:46.104Z,12.30
2023-03-02T12:34:59.862Z,13.60
2023-03-02T12:37:31.917Z,14.18
2023-03-02T12:40:10.595Z,11.40
2023-03-02T12:43:01.396Z,12.40
2023-03-02T12:45:36.678Z,12.68
2023-03-02T12:48:15.639Z,11.98
2023-03-02T12:50:42.950Z,13.90
2023-03-02T12:53:19.405Z,10.48
2023-03-02T12:55:47.037Z,13.70
2023-03-02T12:58:20.881Z,10.63
2023-03-02T13:00:57.114Z,11.00
2023-03-02T13:03:26.370Z,11.50
2023-03-02T13:06:04.185Z,10.80
2023-03-02T13:08:32.047Z,9.75
2023-03-02T13:11:01.652Z,9.65
2023-03-02T13:13:43.062Z,9.65
2023-03-02T13:16:23.266Z,8.48
2023-03-02T13:18:53.907Z,9.90
2023-03-02T13:21:22.127Z,8.93
2023-03-02T13:23:51.900Z,9.70
2023-03-02T13:26:29.141Z,10.23
2023-03-02T13:29:14.769Z,8.90
2023-03-02T13:31:41.453Z,11.63
2023-03-02T13:34:24.575Z,9.20
2023-03-02T13:36:52.072Z,10.63
2023-03-02T13:39:28.271Z,9.35
2023-03-02T13:41:59.012Z,7.47
2023-03-02T13:44:33.950Z,12.25
2023-03-02T13:47:01.790Z,10.77
2023-03-02T13:49:31.365Z,10.00
2023-03-02T13:52:20.095Z,8.20
2023-03-02T13:54:48.015Z,10.15
2023-03-02T13:57:25.200Z,7.90
2023-03-02T13:59:51.894Z,7.32
2023-03-02T14:02:25.454Z,7.50
2023-03-02T14:04:52.926Z,10.05
2023-03-02T14:07:20.964Z,9.63
2023-03-02T14:09:48.640Z,6.63
2023-03-02T14:12:27.370Z,6.70
2023-03-02T14:14:57.438Z,9.02
2023-03-02T14:17:26.148Z,9.00
2023-03-02T14:19:54.949Z,5.80
2023-03-02T14:22:25.219Z,5.95
2023-03-02T14:24:51.931Z,7.72
2023-03-02T14:27:19.390Z,6.68
2023-03-02T14:29:46.924Z,8.10
2023-03-02T14:32:15.390Z,9.65
2023-03-02T14:34:43.381Z,8.50
2023-03-02T14:37:15.138Z,7.28
2023-03-02T14:39:45.740Z,8.38
2023-03-02T14:42:15.390Z,7.93
2023-03-02T14:44:43.602Z,7.45
2023-03-02T14:47:10.620Z,8.98
2023-03-02T14:49:38.162Z,7.43
2023-03-02T14:52:28.076Z,8.88
2023-03-02T14:54:57.941Z,10.57
2023-03-02T14:57:27.673Z,9.18
2023-03-02T14:59:56.251Z,9.23
2023-03-02T15:02:26.744Z,11.47
2023-03-02T15:04:57.065Z,13.75
2023-03-02T15:07:28.300Z,10.77
2023-03-02T15:09:57.369Z,9.15
2023-03-02T15:12:24.540Z,8.13
2023-03-02T15:14:51.711Z,9.02
2023-03-02T15:17:18.430Z,8.35
2023-03-02T15:19:45.110Z,9.60
2023-03-02T15:22:13.198Z,8.98
2023-03-02T15:24:39.937Z,9.43
2023-03-02T15:27:06.609Z,11.85
2023-03-02T15:29:33.725Z,10.65
2023-03-02T15:32:00.479Z,11.20
2023-03-02T15:34:27.180Z,10.60
2023-03-02T15:36:53.807Z,9.55
2023-03-02T15:39:20.514Z,12.13
2023-03-02T15:41:47.152Z,13.05
2023-03-02T15:44:23.011Z,11.88
2023-03-02T15:46:51.785Z,12.57
2023-03-02T15:49:22.876Z,9.77
2023-03-02T15:51:51.995Z,10.55
2023-03-02T15:54:18.899Z,13.43
2023-03-02T15:56:45.542Z,12.32
2023-03-02T15:59:12.166Z,15.05
2023-03-02T16:01:38.885Z,10.48
2023-03-02T16:04:05.628Z,13.80
2023-03-02T16:06:32.282Z,12.43
2023-03-02T16:08:58.901Z,11.55
2023-03-02T16:11:25.646Z,16.50
2023-03-02T16:13:52.865Z,12.23
2023-03-02T16:16:21.147Z,11.77
2023-03-02T16:18:51.886Z,13.07
2023-03-02T16:21:18.911Z,10.57
2023-03-02T16:23:45.752Z,14.80
2023-03-02T16:26:16.740Z,10.75
2023-03-02T16:28:43.456Z,14.32
2023-03-02T16:31:17.654Z,12.57
2023-03-02T16:33:45.393Z,12.10
2023-03-02T16:36:13.046Z,13.43
2023-03-02T16:38:40.472Z,12.27
2023-03-02T16:41:16.352Z,13.57
2023-03-02T16:43:49.224Z,15.75
2023-03-02T16:46:17.066Z,14.20
2023-03-02T16:48:46.380Z,18.58
2023-03-02T16:51:13.455Z,13.20
2023-03-02T16:53:43.345Z,17.98
2023-03-02T16:56:11.982Z,14.95
2023-03-02T16:58:40.137Z,16.97
2023-03-02T17:01:09.022Z,13.20
2023-03-02T17:03:36.026Z,14.45
2023-03-02T17:06:03.053Z,14.82
2023-03-02T17:08:50.850Z,28.63
2023-03-02T17:11:17.980Z,17.17
2023-03-02T17:13:44.709Z,44.28
2023-03-02T17:16:11.990Z,18.75
2023-03-02T17:18:38.905Z,20.98
2023-03-02T17:21:05.900Z,21.52
2023-03-02T17:23:33.192Z,17.95
2023-03-02T17:26:00.337Z,17.23
2023-03-02T17:28:27.063Z,16.48
2023-03-02T17:30:53.763Z,17.85
2023-03-02T17:33:20.561Z,17.55
2023-03-02T17:35:47.545Z,18.00
2023-03-02T17:38:15.355Z,17.73
2023-03-02T17:40:43.122Z,20.95
2023-03-02T17:43:10.282Z,21.02
2023-03-02T17:45:36.926Z,18.80
2023-03-02T17:48:03.700Z,18.45
2023-03-02T17:50:33.765Z,20.85
2023-03-02T17:53:00.785Z,21.42
2023-03-02T17:55:27.754Z,20.92
2023-03-02T17:57:54.446Z,19.70
2023-03-02T18:00:23.226Z,20.85
2023-03-02T18:02:51.030Z,17.73
2023-03-02T18:05:18.196Z,20.08
2023-03-02T18:07:45.217Z,20.20
2023-03-02T18:10:12.567Z,18.48
2023-03-02T18:12:39.457Z,21.30
2023-03-02T18:15:06.789Z,22.90
2023-03-02T18:17:33.448Z,20.17
2023-03-02T18:20:00.144Z,16.88
2023-03-02T18:22:26.873Z,23.73
2023-03-02T18:24:53.590Z,20.38
2023-03-02T18:27:20.634Z,21.67
2023-03-02T18:29:47.363Z,30.20
2023-03-02T18:32:14.421Z,32.97
2023-03-02T18:34:41.441Z,27.52
2023-03-02T18:37:08.566Z,22.40
2023-03-02T18:39:37.688Z,29.02
2023-03-02T18:42:05.371Z,21.98
2023-03-02T18:44:32.577Z,24.65
2023-03-02T18:47:00.742Z,24.95
2023-03-02T18:49:28.022Z,23.05
2023-03-02T18:51:56.591Z,22.88
2023-03-02T18:54:24.561Z,23.20
2023-03-02T18:56:51.544Z,24.98
2023-03-02T18:59:18.432Z,26.52
2023-03-02T19:01:46.300Z,25.20
2023-03-02T19:04:14.340Z,27.85
2023-03-02T19:06:42.323Z,25.77
2023-03-02T19:09:09.556Z,27.38
2023-03-02T19:11:36.456Z,28.73
2023-03-02T19:14:03.454Z,26.85
2023-03-02T19:16:30.132Z,30.00
2023-03-02T19:18:56.902Z,26.75
2023-03-02T19:21:23.604Z,34.60
2023-03-02T19:23:50.235Z,31.25
2023-03-02T19:26:16.916Z,28.45
2023-03-02T19:28:43.639Z,36.33
2023-03-02T19:31:11.520Z,32.75
2023-03-02T19:33:40.063Z,30.67
2023-03-02T19:36:07.501Z,35.23
2023-03-02T19:38:37.842Z,31.27
2023-03-02T19:41:04.931Z,36.03
2023-03-02T19:43:33.016Z,31.65
2023-03-02T19:46:00.859Z,36.50
2023-03-02T19:48:29.724Z,39.85
2023-03-02T19:50:56.641Z,32.25
2023-03-02T19:53:23.368Z,34.83
2023-03-02T19:55:51.518Z,38.70
2023-03-02T19:58:19.812Z,35.35
2023-03-02T20:00:47.003Z,40.50
2023-03-02T20:03:13.837Z,33.95
2023-03-02T20:05:40.590Z,34.85
2023-03-02T20:08:07.822Z,39.78
2023-03-02T20:10:34.704Z,45.90
2023-03-02T20:13:01.702Z,40.50
2023-03-02T20:15:31.072Z,45.03
2023-03-02T20:20:27.040Z,42.00
2023-03-02T20:22:53.770Z,40.20
2023-03-02T20:25:21.460Z,40.70
2023-03-02T20:27:49.356Z,38.15
2023-03-02T20:30:22.948Z,42.65
2023-03-02T20:32:50.041Z,40.63
2023-03-02T20:35:16.920Z,39.25
2023-03-02T20:37:43.615Z,39.00
2023-03-02T20:40:31.130Z,39.38
2023-03-02T20:42:58.382Z,44.65
2023-03-02T20:45:25.792Z,43.90
2023-03-02T20:47:52.638Z,42.03
2023-03-02T20:50:26.095Z,41.10
2023-03-02T20:52:53.005Z,44.13
2023-03-02T20:55:19.930Z,42.60
2023-03-02T20:57:48.654Z,43.78
2023-03-02T21:00:20.846Z,43.33
2023-03-02T21:02:48.459Z,44.72
2023-03-02T21:05:17.461Z,49.13
2023-03-02T21:07:45.516Z,48.47
2023-03-02T21:10:16.184Z,45.25
2023-03-02T21:12:43.052Z,49.50
2023-03-02T21:15:10.619Z,45.67
2023-03-02T21:17:37.619Z,47.10
2023-03-02T21:20:05.965Z,45.42
2023-03-02T21:22:33.195Z,46.60
2023-03-02T21:25:00.045Z,45.55
2023-03-02T21:27:26.677Z,46.58
2023-03-02T21:29:53.355Z,45.80
2023-03-02T21:32:20.053Z,50.30
2023-03-02T21:34:46.773Z,51.20
2023-03-02T21:37:13.391Z,51.97
2023-03-02T21:39:40.027Z,48.58
2023-03-02T21:42:07.003Z,56.08
2023-03-02T21:44:33.636Z,54.22
2023-03-02T21:47:00.234Z,50.78
2023-03-02T21:49:27.054Z,51.17
2023-03-02T21:51:53.672Z,54.05
2023-03-02T21:54:20.400Z,53.45
2023-03-02T21:56:47.092Z,58.65
2023-03-02T21:59:13.805Z,57.13
2023-03-02T22:01:40.798Z,56.47
2023-03-02T22:04:07.415Z,61.33
2023-03-02T22:06:37.620Z,55.83
2023-03-02T22:09:04.845Z,60.05
2023-03-02T22:11:35.940Z,61.72
2023-03-02T22:14:14.478Z,67.35
2023-03-02T22:16:43.262Z,73.73
2023-03-02T22:19:32.782Z,81.88
2023-03-02T22:22:01.053Z,81.60
2023-03-02T22:24:30.385Z,89.50
2023-03-02T22:27:22.247Z,95.05
2023-03-02T22:29:53.116Z,98.03
2023-03-02T22:32:26.390Z,104.57
2023-03-02T22:35:02.726Z,94.38
2023-03-02T22:37:33.651Z,113.43
2023-03-02T22:40:27.742Z,104.60
2023-03-02T22:43:08.630Z,105.20
2023-03-02T22:45:35.612Z,90.05
2023-03-02T22:48:02.343Z,96.45
2023-03-02T22:50:30.825Z,103.75
2023-03-02T22:53:00.123Z,108.10
2023-03-02T22:58:25.515Z,100.13
2023-03-02T23:00:52.500Z,111.18
2023-03-02T23:03:22.043Z,105.13
2023-03-02T23:05:51.759Z,106.85
2023-03-02T23:08:26.633Z,128.32
2023-03-02T23:10:57.872Z,123.10
2023-03-02T23:13:30.324Z,104.55
2023-03-02T23:15:57.530Z,101.63
2023-03-02T23:18:27.319Z,124.75
2023-03-02T23:20:54.360Z,146.13
2023-03-02T23:23:23.183Z,182.15
2023-03-02T23:25:50.614Z,149.88
2023-03-02T23:28:17.267Z,155.75
2023-03-02T23:30:44.077Z,183.20
2023-03-02T23:33:10.806Z,153.35
2023-03-02T23:35:37.472Z,187.07
2023-03-02T23:38:04.143Z,213.38
2023-03-02T23:40:30.848Z,180.82
2023-03-02T23:42:57.455Z,212.02
2023-03-02T23:45:24.175Z,191.00
2023-03-02T23:47:50.770Z,188.38
2023-03-02T23:50:17.688Z,151.43
2023-03-02T23:52:44.348Z,230.23
2023-03-02T23:55:11.390Z,211.70
2023-03-02T23:57:38.003Z,218.30
